Wetterdaten: Woche 19.09.05 - 25.09.05 (KW38)
Datum Zeit Temperatur Luftfeuchte Luftdruck Niederschlag Windrichtung Wind
19.09.2005 00:00 7,3 C 76 % 1022 hPa 0,0 l/m N-NO 16,4 km/h (3 Bft)
19.09.2005 01:00 7,1 C 77 % 1022 hPa 0,0 l/m N-NO 15,0 km/h (3 Bft)
19.09.2005 02:00 6,8 C 80 % 1022 hPa 0,0 l/m N 14,0 km/h (3 Bft)
19.09.2005 03:00 6,6 C 82 % 1021 hPa 0,0 l/m N 12,8 km/h (3 Bft)
19.09.2005 04:00 6,7 C 81 % 1021 hPa 0,0 l/m N-NO 13,2 km/h (3 Bft)
19.09.2005 05:00 6,6 C 81 % 1021 hPa 0,0 l/m N-NO 14,0 km/h (3 Bft)
19.09.2005 06:00 6,1 C 82 % 1021 hPa 0,0 l/m N 11,2 km/h (2 Bft)
19.09.2005 07:00 5,9 C 83 % 1021 hPa 0,0 l/m N-NO 14,1 km/h (3 Bft)
19.09.2005 08:00 6,8 C 78 % 1021 hPa 0,0 l/m N-NO 15,5 km/h (3 Bft)
19.09.2005 09:00 8,4 C 70 % 1021 hPa 0,0 l/m O-NO 19,3 km/h (3 Bft)
19.09.2005 10:00 9,7 C 64 % 1021 hPa 0,0 l/m O 20,7 km/h (4 Bft)
19.09.2005 11:00 11,0 C 59 % 1021 hPa 0,0 l/m O-NO 21,3 km/h (4 Bft)
19.09.2005 12:00 11,8 C 56 % 1021 hPa 0,0 l/m O-NO 18,7 km/h (3 Bft)
19.09.2005 13:00 12,5 C 52 % 1022 hPa 0,0 l/m O-NO 23,8 km/h (4 Bft)
19.09.2005 14:00 13,9 C 49 % 1021 hPa 0,0 l/m O 21,8 km/h (4 Bft)
19.09.2005 15:00 13,8 C 51 % 1021 hPa 0,0 l/m O-NO 17,6 km/h (3 Bft)
19.09.2005 16:00 13,5 C 52 % 1021 hPa 0,0 l/m NO 13,6 km/h (3 Bft)
19.09.2005 17:00 13,1 C 54 % 1021 hPa 0,0 l/m O-NO 13,5 km/h (3 Bft)
19.09.2005 18:00 12,6 C 58 % 1022 hPa 0,0 l/m O-NO 10,4 km/h (2 Bft)
19.09.2005 19:00 11,8 C 64 % 1022 hPa 0,0 l/m O 0,5 km/h (0 Bft)
19.09.2005 20:00 10,5 C 71 % 1022 hPa 0,0 l/m N 0,0 km/h (0 Bft)
19.09.2005 21:00 9,6 C 79 % 1022 hPa 0,0 l/m W 0,2 km/h (0 Bft)
19.09.2005 22:00 9,4 C 84 % 1022 hPa 0,0 l/m N 0,0 km/h (0 Bft)
19.09.2005 23:00 9,0 C 85 % 1022 hPa 0,0 l/m W-NW 3,6 km/h (1 Bft)
20.09.2005 00:00 7,8 C 89 % 1022 hPa 0,0 l/m NW 9,4 km/h (2 Bft)
20.09.2005 01:00 7,2 C 92 % 1022 hPa 0,0 l/m NW 7,5 km/h (2 Bft)
20.09.2005 02:00 6,9 C 93 % 1022 hPa 0,0 l/m NW 3,6 km/h (1 Bft)
20.09.2005 03:00 6,4 C 92 % 1022 hPa 0,0 l/m NW 0,4 km/h (0 Bft)
20.09.2005 04:00 5,5 C 91 % 1022 hPa 0,0 l/m N 0,0 km/h (0 Bft)
20.09.2005 05:00 5,2 C 93 % 1022 hPa 0,0 l/m N 0,2 km/h (0 Bft)
20.09.2005 06:00 5,7 C 95 % 1022 hPa 0,0 l/m N 0,0 km/h (0 Bft)
20.09.2005 07:00 6,2 C 95 % 1023 hPa 0,0 l/m W-NW 0,9 km/h (0 Bft)
20.09.2005 08:00 6,7 C 92 % 1023 hPa 0,0 l/m N-NW 3,0 km/h (1 Bft)
20.09.2005 09:00 8,2 C 84 % 1023 hPa 0,0 l/m N-NW 1,3 km/h (1 Bft)
20.09.2005 10:00 12,1 C 66 % 1023 hPa 0,0 l/m NO 1,9 km/h (1 Bft)
20.09.2005 11:00 14,8 C 53 % 1023 hPa 0,0 l/m O 7,2 km/h (2 Bft)
20.09.2005 12:00 15,7 C 47 % 1023 hPa 0,0 l/m N 9,7 km/h (2 Bft)
20.09.2005 13:00 15,0 C 49 % 1023 hPa 0,0 l/m N-NW 8,8 km/h (2 Bft)
20.09.2005 14:00 15,4 C 48 % 1023 hPa 0,0 l/m NW 8,0 km/h (2 Bft)
20.09.2005 15:00 16,0 C 46 % 1022 hPa 0,0 l/m N-NO 5,7 km/h (1 Bft)
20.09.2005 16:00 15,5 C 47 % 1022 hPa 0,0 l/m O 7,3 km/h (2 Bft)
20.09.2005 17:00 15,2 C 49 % 1023 hPa 0,0 l/m O-NO 8,0 km/h (2 Bft)
20.09.2005 18:00 14,7 C 52 % 1023 hPa 0,0 l/m O 1,8 km/h (1 Bft)
20.09.2005 19:00 12,2 C 67 % 1023 hPa 0,0 l/m N 0,0 km/h (0 Bft)
20.09.2005 20:00 11,0 C 75 % 1023 hPa 0,0 l/m N 0,0 km/h (0 Bft)
20.09.2005 21:00 10,8 C 78 % 1023 hPa 0,0 l/m W-NW 1,6 km/h (1 Bft)
20.09.2005 22:00 10,2 C 80 % 1023 hPa 0,0 l/m NW 0,3 km/h (0 Bft)
20.09.2005 23:00 9,1 C 84 % 1023 hPa 0,0 l/m N 0,0 km/h (0 Bft)
21.09.2005 00:00 7,8 C 89 % 1023 hPa 0,0 l/m W-NW 0,5 km/h (0 Bft)
21.09.2005 01:00 7,4 C 91 % 1023 hPa 0,0 l/m N 0,1 km/h (0 Bft)
21.09.2005 02:00 6,8 C 92 % 1023 hPa 0,0 l/m N 0,1 km/h (0 Bft)
21.09.2005 03:00 6,4 C 94 % 1022 hPa 0,0 l/m N 0,1 km/h (0 Bft)
21.09.2005 04:00 6,2 C 95 % 1022 hPa 0,0 l/m W-NW 2,8 km/h (1 Bft)
21.09.2005 05:00 6,0 C 96 % 1022 hPa 0,0 l/m NW 7,2 km/h (2 Bft)
21.09.2005 06:00 5,4 C 96 % 1022 hPa 0,0 l/m W-NW 3,8 km/h (1 Bft)
21.09.2005 07:00 5,2 C 96 % 1022 hPa 0,0 l/m NW 5,1 km/h (1 Bft)
21.09.2005 08:00 6,2 C 96 % 1022 hPa 0,0 l/m N 7,8 km/h (2 Bft)
21.09.2005 09:00 8,5 C 85 % 1022 hPa 0,0 l/m N 10,3 km/h (2 Bft)
21.09.2005 10:00 12,0 C 66 % 1022 hPa 0,0 l/m NO 15,7 km/h (3 Bft)
21.09.2005 11:00 14,5 C 55 % 1021 hPa 0,0 l/m N-NO 14,6 km/h (3 Bft)
21.09.2005 12:00 15,7 C 48 % 1021 hPa 0,0 l/m N 19,4 km/h (3 Bft)
21.09.2005 13:00 17,0 C 42 % 1021 hPa 0,0 l/m N-NO 20,3 km/h (4 Bft)
21.09.2005 14:00 17,9 C 43 % 1020 hPa 0,0 l/m N-NO 16,2 km/h (3 Bft)
21.09.2005 15:00 18,0 C 42 % 1020 hPa 0,0 l/m N-NO 8,2 km/h (2 Bft)
21.09.2005 16:00 16,5 C 46 % 1020 hPa 0,0 l/m NO 15,1 km/h (3 Bft)
21.09.2005 17:00 15,7 C 48 % 1020 hPa 0,0 l/m NO 17,4 km/h (3 Bft)
21.09.2005 18:00 14,8 C 50 % 1020 hPa 0,0 l/m N 11,8 km/h (2 Bft)
21.09.2005 19:00 13,2 C 56 % 1020 hPa 0,0 l/m N-NO 9,0 km/h (2 Bft)
21.09.2005 20:00 11,4 C 63 % 1020 hPa 0,0 l/m N-NW 8,9 km/h (2 Bft)
21.09.2005 21:00 10,3 C 68 % 1020 hPa 0,0 l/m N 7,3 km/h (2 Bft)
21.09.2005 22:00 9,4 C 72 % 1021 hPa 0,0 l/m N 4,7 km/h (1 Bft)
21.09.2005 23:00 8,7 C 75 % 1020 hPa 0,0 l/m NW 8,2 km/h (2 Bft)
22.09.2005 00:00 7,9 C 79 % 1020 hPa 0,0 l/m NW 9,1 km/h (2 Bft)
22.09.2005 01:00 7,7 C 82 % 1020 hPa 0,0 l/m N-NW 10,7 km/h (2 Bft)
22.09.2005 02:00 7,2 C 83 % 1020 hPa 0,0 l/m W-NW 6,8 km/h (2 Bft)
22.09.2005 03:00 6,7 C 86 % 1020 hPa 0,0 l/m NW 4,0 km/h (1 Bft)
22.09.2005 04:00 6,1 C 88 % 1020 hPa 0,0 l/m NW 6,7 km/h (2 Bft)
22.09.2005 05:00 5,9 C 92 % 1020 hPa 0,0 l/m N-NW 8,5 km/h (2 Bft)
22.09.2005 06:00 5,4 C 94 % 1020 hPa 0,0 l/m NW 2,1 km/h (1 Bft)
22.09.2005 07:00 5,1 C 95 % 1020 hPa 0,0 l/m NW 1,8 km/h (1 Bft)
22.09.2005 08:00 6,0 C 97 % 1020 hPa 0,0 l/m N 0,2 km/h (0 Bft)
22.09.2005 09:00 7,6 C 97 % 1020 hPa 0,0 l/m NO 8,5 km/h (2 Bft)
22.09.2005 10:00 9,9 C 86 % 1021 hPa 0,0 l/m O-NO 10,0 km/h (2 Bft)
22.09.2005 11:00 13,2 C 68 % 1020 hPa 0,0 l/m N-NO 9,0 km/h (2 Bft)
22.09.2005 12:00 14,6 C 66 % 1020 hPa 0,0 l/m N 9,5 km/h (2 Bft)
22.09.2005 13:00 16,7 C 57 % 1020 hPa 0,0 l/m N 7,8 km/h (2 Bft)
22.09.2005 14:00 18,8 C 49 % 1020 hPa 0,0 l/m N-NO 9,8 km/h (2 Bft)
22.09.2005 15:00 19,1 C 49 % 1020 hPa 0,0 l/m N 10,0 km/h (2 Bft)
22.09.2005 16:00 17,9 C 52 % 1019 hPa 0,0 l/m O-NO 10,1 km/h (2 Bft)
22.09.2005 17:00 17,1 C 56 % 1019 hPa 0,0 l/m O-NO 10,4 km/h (2 Bft)
22.09.2005 18:00 16,4 C 59 % 1019 hPa 0,0 l/m O 6,1 km/h (2 Bft)
22.09.2005 19:00 14,1 C 72 % 1020 hPa 0,0 l/m N 0,0 km/h (0 Bft)
22.09.2005 20:00 12,3 C 78 % 1020 hPa 0,0 l/m N 0,0 km/h (0 Bft)
22.09.2005 21:00 11,1 C 86 % 1020 hPa 0,0 l/m N 0,0 km/h (0 Bft)
22.09.2005 22:00 10,3 C 87 % 1020 hPa 0,0 l/m N 0,0 km/h (0 Bft)
22.09.2005 23:00 9,6 C 91 % 1020 hPa 0,0 l/m N 0,0 km/h (0 Bft)
23.09.2005 00:00 9,3 C 94 % 1020 hPa 0,0 l/m W 0,7 km/h (0 Bft)
23.09.2005 01:00 8,5 C 95 % 1020 hPa 0,0 l/m N 0,0 km/h (0 Bft)
23.09.2005 02:00 7,7 C 94 % 1020 hPa 0,0 l/m N 0,0 km/h (0 Bft)
23.09.2005 03:00 6,7 C 95 % 1019 hPa 0,0 l/m N 0,0 km/h (0 Bft)
23.09.2005 04:00 6,4 C 97 % 1019 hPa 0,0 l/m N 0,0 km/h (0 Bft)
23.09.2005 05:00 6,1 C 97 % 1019 hPa 0,0 l/m N 0,0 km/h (0 Bft)
23.09.2005 06:00 5,8 C 98 % 1019 hPa 0,0 l/m N 0,0 km/h (0 Bft)
23.09.2005 07:00 6,0 C 99 % 1019 hPa 0,0 l/m N 0,0 km/h (0 Bft)
23.09.2005 08:00 6,6 C 100 % 1019 hPa 0,0 l/m N 0,0 km/h (0 Bft)
23.09.2005 09:00 8,1 C 100 % 1019 hPa 0,0 l/m N 0,0 km/h (0 Bft)
23.09.2005 10:00 11,6 C 99 % 1020 hPa 0,0 l/m S-SW 3,8 km/h (1 Bft)
23.09.2005 11:00 16,0 C 77 % 1019 hPa 0,0 l/m S 8,8 km/h (2 Bft)
23.09.2005 12:00 17,6 C 67 % 1019 hPa 0,0 l/m S 13,1 km/h (3 Bft)
23.09.2005 13:00 19,5 C 59 % 1019 hPa 0,0 l/m S 11,9 km/h (2 Bft)
23.09.2005 14:00 21,2 C 50 % 1018 hPa 0,0 l/m S-SW 11,2 km/h (2 Bft)
23.09.2005 15:00 21,5 C 45 % 1018 hPa 0,0 l/m S 10,0 km/h (2 Bft)
23.09.2005 16:00 20,2 C 45 % 1017 hPa 0,0 l/m S-SW 12,9 km/h (3 Bft)
23.09.2005 17:00 19,5 C 47 % 1017 hPa 0,0 l/m S-SW 9,3 km/h (2 Bft)
23.09.2005 18:00 18,1 C 55 % 1017 hPa 0,0 l/m W-SW 0,3 km/h (0 Bft)
23.09.2005 19:00 15,8 C 67 % 1017 hPa 0,0 l/m N 0,0 km/h (0 Bft)
23.09.2005 20:00 13,8 C 76 % 1018 hPa 0,0 l/m N 0,0 km/h (0 Bft)
23.09.2005 21:00 12,7 C 82 % 1018 hPa 0,0 l/m N 0,0 km/h (0 Bft)
23.09.2005 22:00 11,7 C 86 % 1018 hPa 0,0 l/m N 0,0 km/h (0 Bft)
23.09.2005 23:00 10,8 C 88 % 1018 hPa 0,0 l/m N 0,0 km/h (0 Bft)
24.09.2005 00:00 10,0 C 92 % 1019 hPa 0,0 l/m N 0,0 km/h (0 Bft)
24.09.2005 01:00 9,3 C 93 % 1019 hPa 0,0 l/m N 0,0 km/h (0 Bft)
24.09.2005 02:00 8,6 C 94 % 1019 hPa 0,0 l/m N 0,0 km/h (0 Bft)
24.09.2005 03:00 8,3 C 95 % 1019 hPa 0,0 l/m N 0,0 km/h (0 Bft)
24.09.2005 04:00 7,9 C 98 % 1019 hPa 0,0 l/m N 0,0 km/h (0 Bft)
24.09.2005 05:00 7,0 C 98 % 1019 hPa 0,0 l/m N 0,0 km/h (0 Bft)
24.09.2005 06:00 6,4 C 99 % 1019 hPa 0,0 l/m N 0,0 km/h (0 Bft)
24.09.2005 07:00 6,3 C 99 % 1019 hPa 0,0 l/m N 0,0 km/h (0 Bft)
24.09.2005 08:00 7,0 C 100 % 1020 hPa 0,0 l/m N 0,0 km/h (0 Bft)
24.09.2005 09:00 8,9 C 100 % 1020 hPa 0,0 l/m N 0,0 km/h (0 Bft)
24.09.2005 10:00 13,3 C 100 % 1020 hPa 0,0 l/m S-SO 0,9 km/h (0 Bft)
24.09.2005 11:00 17,8 C 76 % 1020 hPa 0,0 l/m S 8,5 km/h (2 Bft)
24.09.2005 12:00 19,5 C 61 % 1019 hPa 0,0 l/m S-SW 10,0 km/h (2 Bft)
24.09.2005 13:00 21,4 C 52 % 1019 hPa 0,0 l/m S-SW 12,2 km/h (2 Bft)
24.09.2005 14:00 22,8 C 43 % 1019 hPa 0,0 l/m S 11,3 km/h (2 Bft)
24.09.2005 15:00 23,0 C 41 % 1018 hPa 0,0 l/m S-SW 7,5 km/h (2 Bft)
24.09.2005 16:00 21,5 C 42 % 1018 hPa 0,0 l/m S 7,1 km/h (2 Bft)
24.09.2005 17:00 20,7 C 47 % 1018 hPa 0,0 l/m NO 8,0 km/h (2 Bft)
24.09.2005 18:00 19,3 C 57 % 1018 hPa 0,0 l/m O-NO 2,0 km/h (1 Bft)
24.09.2005 19:00 16,4 C 69 % 1017 hPa 0,0 l/m N 0,0 km/h (0 Bft)
24.09.2005 20:00 14,4 C 74 % 1017 hPa 0,0 l/m N 0,0 km/h (0 Bft)
24.09.2005 21:00 13,2 C 82 % 1017 hPa 0,0 l/m W-NW 0,3 km/h (0 Bft)
24.09.2005 22:00 12,4 C 86 % 1017 hPa 0,0 l/m W-NW 1,5 km/h (1 Bft)
24.09.2005 23:00 11,8 C 86 % 1017 hPa 0,0 l/m W-NW 2,7 km/h (1 Bft)
25.09.2005 00:00 11,4 C 88 % 1017 hPa 0,0 l/m W-NW 6,1 km/h (2 Bft)
25.09.2005 01:00 10,9 C 90 % 1017 hPa 0,0 l/m W-NW 1,4 km/h (1 Bft)
25.09.2005 02:00 9,7 C 90 % 1017 hPa 0,0 l/m N 0,0 km/h (0 Bft)
25.09.2005 03:00 9,0 C 91 % 1016 hPa 0,0 l/m N 0,0 km/h (0 Bft)
25.09.2005 04:00 8,3 C 92 % 1016 hPa 0,0 l/m N 0,0 km/h (0 Bft)
25.09.2005 05:00 7,7 C 94 % 1016 hPa 0,0 l/m N 0,0 km/h (0 Bft)
25.09.2005 06:00 7,3 C 95 % 1016 hPa 0,0 l/m N 0,0 km/h (0 Bft)
25.09.2005 07:00 6,8 C 96 % 1016 hPa 0,0 l/m N 0,0 km/h (0 Bft)
25.09.2005 08:00 7,9 C 97 % 1016 hPa 0,0 l/m N 0,0 km/h (0 Bft)
25.09.2005 09:00 9,7 C 98 % 1017 hPa 0,0 l/m S 0,5 km/h (0 Bft)
25.09.2005 10:00 13,8 C 92 % 1017 hPa 0,0 l/m O 3,8 km/h (1 Bft)
25.09.2005 11:00 17,3 C 70 % 1016 hPa 0,0 l/m S-SO 6,2 km/h (2 Bft)
25.09.2005 12:00 18,9 C 65 % 1016 hPa 0,0 l/m O-SO 9,3 km/h (2 Bft)
25.09.2005 13:00 20,5 C 61 % 1016 hPa 0,0 l/m S 11,5 km/h (2 Bft)
25.09.2005 14:00 22,4 C 50 % 1016 hPa 0,0 l/m O 6,7 km/h (2 Bft)
25.09.2005 15:00 23,2 C 47 % 1015 hPa 0,0 l/m SO 3,2 km/h (1 Bft)
25.09.2005 16:00 21,4 C 51 % 1015 hPa 0,0 l/m S 7,1 km/h (2 Bft)
25.09.2005 17:00 20,6 C 54 % 1015 hPa 0,0 l/m S 6,0 km/h (2 Bft)
25.09.2005 18:00 19,2 C 64 % 1015 hPa 0,0 l/m N 0,0 km/h (0 Bft)
25.09.2005 19:00 16,7 C 75 % 1015 hPa 0,0 l/m N 0,0 km/h (0 Bft)
25.09.2005 20:00 15,0 C 81 % 1016 hPa 0,0 l/m N 0,0 km/h (0 Bft)
25.09.2005 21:00 13,8 C 85 % 1016 hPa 0,0 l/m N 0,0 km/h (0 Bft)
25.09.2005 22:00 12,9 C 88 % 1017 hPa 0,0 l/m N 0,0 km/h (0 Bft)
25.09.2005 23:00 12,0 C 90 % 1017 hPa 0,0 l/m N 0,0 km/h (0 Bft)
Min-Datum _ 20.09.05 21.09.05 22.09.05 - - 19.09.05
_ Min-Zeit 04:57 13:37 13:31 - - 00:00
Minimum _ 5,0 C 39 % 1010 hPa - - 0,0 km/h (0 Bft)
Max-Datum _ 25.09.05 23.09.05 20.09.05 19.09.05 - 19.09.05
_ Max-Zeit 15:11 08:29 07:16 00:00 - 13:58
Maximum _ 23,5 C 100 % 1023 hPa 0,0 l/m - 39,3 km/h
O-NO (6 Bft)
Durchschnitt _ 11,8 C 75 % 1020 hPa #0,0 l/m N 5,8 km/h (2 Bft)

Durchschnitt Minimum Temp.11,2 C
Durchschnitt Maximum Temp.12,3 C